Time;durP1;ratioP1;P1;durP2;ratioP2;P2;SDS_P1;SDS_P2;PMS_P1;PMS_P2;Temp;Humidity;BMP_temperature;BMP_pressure;BME280_temperature;BME280_humidity;BME280_pressure;Samples;Min_cycle;Max_cycle;Signal;HPM_P1;HPM_P2
2022/10/30 00:01:51;;;;;;;4.10;2.33;;;18.20;99.90;;;;;;462492;256;29515;-69
2022/10/30 00:03:52;;;;;;;2.73;2.20;;;18.10;99.90;;;;;;476558;245;29497;-71
2022/10/30 00:05:54;;;;;;;3.37;2.23;;;18.10;99.90;;;;;;465063;253;29386;-69
2022/10/30 00:07:55;;;;;;;4.43;2.60;;;18.20;99.90;;;;;;482127;245;29376;-71
2022/10/30 00:09:56;;;;;;;3.53;2.37;;;18.20;99.90;;;;;;478933;246;28831;-69
2022/10/30 00:11:57;;;;;;;5.47;2.30;;;18.20;99.90;;;;;;476833;245;28737;-70
2022/10/30 00:14:00;;;;;;;3.90;2.33;;;18.10;99.90;;;;;;482387;245;28832;-72
2022/10/30 00:16:01;;;;;;;6.60;2.23;;;18.20;99.90;;;;;;463045;256;29396;-70
2022/10/30 00:18:03;;;;;;;3.27;2.40;;;18.10;99.90;;;;;;482920;245;29208;-70
2022/10/30 00:20:04;;;;;;;4.20;2.73;;;18.10;99.90;;;;;;479087;246;29275;-68
2022/10/30 00:22:05;;;;;;;4.93;2.50;;;18.00;99.90;;;;;;479725;246;28923;-69
2022/10/30 00:24:06;;;;;;;5.10;2.73;;;18.10;99.90;;;;;;476849;245;28812;-69
2022/10/30 00:26:08;;;;;;;6.10;3.27;;;18.10;99.90;;;;;;480021;246;28899;-69
2022/10/30 00:28:09;;;;;;;6.97;3.10;;;18.10;99.90;;;;;;479557;246;28965;-71
2022/10/30 00:30:10;;;;;;;4.03;2.73;;;18.10;99.90;;;;;;477505;245;28739;-69
2022/10/30 00:32:11;;;;;;;6.60;2.90;;;18.10;99.90;;;;;;463085;255;28991;-70
2022/10/30 00:34:13;;;;;;;2.60;2.07;;;18.10;99.90;;;;;;478215;245;29075;-69
2022/10/30 00:36:14;;;;;;;4.23;2.57;;;18.00;99.90;;;;;;477988;246;28838;-69
2022/10/30 00:38:15;;;;;;;3.13;2.30;;;17.90;99.90;;;;;;480149;246;29210;-70
2022/10/30 00:40:16;;;;;;;3.10;2.43;;;17.90;99.90;;;;;;463953;252;29386;-69
2022/10/30 00:42:18;;;;;;;3.30;2.20;;;17.90;99.90;;;;;;476637;245;29350;-69
2022/10/30 00:44:19;;;;;;;3.33;2.30;;;17.90;99.90;;;;;;480145;246;29416;-71
2022/10/30 00:46:20;;;;;;;2.60;1.97;;;17.90;99.90;;;;;;479589;246;28722;-68
2022/10/30 00:48:21;;;;;;;4.47;2.53;;;17.80;99.90;;;;;;472694;245;28827;-70
2022/10/30 00:50:24;;;;;;;3.50;2.17;;;17.90;99.90;;;;;;481791;246;28792;-69
2022/10/30 00:52:24;;;;;;;3.70;2.10;;;17.70;99.90;;;;;;476461;245;29007;-69
2022/10/30 00:54:25;;;;;;;5.60;2.13;;;17.70;99.90;;;;;;481322;245;28885;-69
2022/10/30 00:56:26;;;;;;;2.60;2.10;;;17.70;99.90;;;;;;480598;246;28927;-69
2022/10/30 00:58:28;;;;;;;5.63;2.30;;;17.80;99.90;;;;;;478084;245;28900;-69
2022/10/30 01:00:29;;;;;;;4.43;2.30;;;17.70;99.90;;;;;;463717;256;28929;-70
2022/10/30 01:02:30;;;;;;;3.57;2.10;;;17.80;99.90;;;;;;479957;245;28844;-69
2022/10/30 01:04:31;;;;;;;2.60;2.03;;;17.70;99.90;;;;;;475590;246;30058;-69
2022/10/30 01:06:33;;;;;;;6.70;3.20;;;17.70;99.90;;;;;;478125;245;29181;-69
2022/10/30 01:08:34;;;;;;;6.00;2.33;;;17.70;99.90;;;;;;478137;246;29404;-70
2022/10/30 01:10:35;;;;;;;3.80;2.63;;;17.60;99.90;;;;;;483343;245;28809;-69
2022/10/30 01:12:36;;;;;;;7.53;2.80;;;17.40;99.90;;;;;;464388;250;28798;-69
2022/10/30 01:14:38;;;;;;;5.27;2.47;;;17.30;99.90;;;;;;464321;255;28826;-68
2022/10/30 01:16:39;;;;;;;4.37;2.40;;;17.20;99.90;;;;;;464546;255;28858;-69
2022/10/30 01:18:40;;;;;;;3.63;2.50;;;17.10;99.90;;;;;;464562;255;28867;-71
2022/10/30 01:20:41;;;;;;;4.83;2.30;;;17.00;99.90;;;;;;464572;255;28842;-68
2022/10/30 01:22:43;;;;;;;4.07;2.57;;;17.10;99.90;;;;;;464559;255;28878;-70
2022/10/30 01:24:44;;;;;;;4.53;2.50;;;17.10;99.90;;;;;;464539;256;28850;-69
2022/10/30 01:26:45;;;;;;;4.60;2.40;;;17.10;99.90;;;;;;464537;255;29268;-69
2022/10/30 01:28:46;;;;;;;8.40;2.90;;;17.10;99.90;;;;;;464559;255;29367;-71
2022/10/30 01:30:48;;;;;;;3.73;2.20;;;17.10;99.90;;;;;;464557;255;29300;-69
2022/10/30 01:32:49;;;;;;;3.60;3.00;;;17.10;99.90;;;;;;464555;255;29346;-68
2022/10/30 01:34:51;;;;;;;3.00;2.40;;;17.00;99.90;;;;;;464547;255;28827;-69
2022/10/30 01:36:51;;;;;;;6.40;2.90;;;17.00;99.90;;;;;;464503;255;28857;-69
2022/10/30 01:38:53;;;;;;;3.93;2.10;;;16.90;99.90;;;;;;464535;255;28898;-71
2022/10/30 01:40:54;;;;;;;2.87;2.37;;;16.80;99.90;;;;;;464532;255;28921;-69
2022/10/30 01:42:55;;;;;;;3.63;2.40;;;16.80;99.90;;;;;;464549;255;28943;-69
2022/10/30 01:44:56;;;;;;;4.87;2.50;;;16.90;99.90;;;;;;464537;255;28887;-70
2022/10/30 01:46:58;;;;;;;2.30;1.80;;;16.80;99.90;;;;;;464541;255;28854;-69
2022/10/30 01:48:59;;;;;;;3.53;2.57;;;16.90;99.90;;;;;;464571;255;28869;-70
2022/10/30 01:51:00;;;;;;;2.23;2.03;;;16.80;99.90;;;;;;464523;255;28831;-68
2022/10/30 01:53:01;;;;;;;3.47;2.30;;;16.70;99.90;;;;;;464556;255;29364;-69
2022/10/30 01:55:03;;;;;;;3.67;1.83;;;16.70;99.90;;;;;;464559;255;30048;-69
2022/10/30 01:57:04;;;;;;;3.40;2.50;;;16.70;99.90;;;;;;464565;255;29371;-68
2022/10/30 01:59:05;;;;;;;2.27;1.90;;;16.70;99.90;;;;;;464554;255;29426;-69
2022/10/30 02:01:06;;;;;;;2.80;1.90;;;16.70;99.90;;;;;;464552;255;28937;-68
2022/10/30 02:03:08;;;;;;;3.33;2.37;;;16.70;99.90;;;;;;464547;255;28981;-68
2022/10/30 02:05:09;;;;;;;2.30;2.10;;;16.60;99.90;;;;;;464546;255;28843;-69
2022/10/30 02:07:10;;;;;;;8.23;2.27;;;16.50;99.90;;;;;;464527;255;28834;-68
2022/10/30 02:09:12;;;;;;;3.03;2.20;;;16.40;99.90;;;;;;464534;255;28859;-70
2022/10/30 02:11:13;;;;;;;3.20;2.13;;;16.40;99.90;;;;;;464546;255;28910;-69
2022/10/30 02:13:14;;;;;;;3.30;1.93;;;16.30;99.90;;;;;;464554;255;28878;-69
2022/10/30 02:15:15;;;;;;;4.07;2.30;;;16.40;99.90;;;;;;464563;255;28847;-68
2022/10/30 02:17:17;;;;;;;4.30;2.30;;;16.40;99.90;;;;;;464522;256;28887;-68
2022/10/30 02:19:18;;;;;;;4.13;2.30;;;16.40;99.90;;;;;;464542;255;29435;-70
2022/10/30 02:21:19;;;;;;;2.30;2.10;;;16.30;99.90;;;;;;464559;255;29293;-69
2022/10/30 02:23:21;;;;;;;3.00;2.30;;;16.30;99.90;;;;;;464552;255;29408;-69
2022/10/30 02:25:22;;;;;;;2.40;1.87;;;16.30;99.90;;;;;;464561;255;28930;-69
2022/10/30 02:27:23;;;;;;;2.30;1.90;;;16.30;99.90;;;;;;464566;255;28822;-69
2022/10/30 02:29:24;;;;;;;2.47;1.83;;;16.40;99.90;;;;;;464575;255;28884;-71
2022/10/30 02:31:25;;;;;;;2.20;2.00;;;16.50;99.90;;;;;;464566;255;28834;-69
2022/10/30 02:33:27;;;;;;;2.50;1.90;;;16.60;99.90;;;;;;464551;255;28869;-70
2022/10/30 02:35:28;;;;;;;2.80;2.13;;;16.60;99.90;;;;;;464533;255;28822;-70
2022/10/30 02:37:31;;;;;;;2.33;1.93;;;16.60;99.90;;;;;;464561;255;28954;-69
2022/10/30 02:39:30;;;;;;;3.63;1.87;;;16.70;99.90;;;;;;464492;256;28876;-71
2022/10/30 02:41:32;;;;;;;1.93;1.60;;;16.60;99.90;;;;;;464569;255;28835;-68
2022/10/30 02:43:33;;;;;;;2.80;1.83;;;16.50;99.90;;;;;;464566;255;29405;-70
2022/10/30 02:45:34;;;;;;;3.40;2.10;;;16.50;99.90;;;;;;464571;255;29413;-68
2022/10/30 02:47:35;;;;;;;4.97;2.20;;;16.40;99.90;;;;;;464567;255;29412;-68
2022/10/30 02:49:37;;;;;;;4.10;2.10;;;16.30;99.90;;;;;;464571;255;28897;-71
2022/10/30 02:51:38;;;;;;;4.67;2.50;;;16.20;99.90;;;;;;464552;255;28827;-69
2022/10/30 02:53:39;;;;;;;3.37;2.40;;;16.10;99.90;;;;;;463021;255;28993;-69
2022/10/30 02:55:40;;;;;;;3.90;2.43;;;16.00;99.90;;;;;;473538;251;28784;-69
2022/10/30 02:57:42;;;;;;;3.33;2.50;;;16.00;99.90;;;;;;473525;251;28880;-68
2022/10/30 02:59:43;;;;;;;2.70;2.50;;;16.00;99.90;;;;;;473534;251;28836;-71
2022/10/30 03:01:44;;;;;;;4.60;3.13;;;16.00;99.90;;;;;;473532;251;28795;-69
2022/10/30 03:03:45;;;;;;;4.07;2.80;;;16.00;99.90;;;;;;473526;251;28875;-69
2022/10/30 03:05:47;;;;;;;3.33;2.27;;;16.00;99.90;;;;;;473510;251;28816;-68
2022/10/30 03:07:48;;;;;;;3.60;2.23;;;16.00;99.90;;;;;;473532;251;29280;-68
2022/10/30 03:09:50;;;;;;;4.03;2.33;;;16.00;99.90;;;;;;473531;251;29342;-71
2022/10/30 03:11:50;;;;;;;4.40;2.60;;;16.10;99.90;;;;;;473506;251;29240;-68
2022/10/30 03:13:52;;;;;;;3.40;2.60;;;16.10;99.90;;;;;;473533;251;29296;-70
2022/10/30 03:15:53;;;;;;;5.07;2.00;;;16.10;99.90;;;;;;473524;251;28786;-69
2022/10/30 03:17:54;;;;;;;2.57;2.27;;;16.00;99.90;;;;;;473517;251;28899;-68
2022/10/30 03:19:55;;;;;;;3.33;2.50;;;16.00;99.90;;;;;;473518;251;28811;-71
2022/10/30 03:21:57;;;;;;;7.20;2.57;;;15.90;99.90;;;;;;473524;251;28815;-69
2022/10/30 03:23:58;;;;;;;4.83;2.30;;;15.90;99.90;;;;;;473518;251;28978;-69
2022/10/30 03:25:59;;;;;;;4.20;2.80;;;16.00;99.90;;;;;;473512;251;28812;-68
2022/10/30 03:28:00;;;;;;;2.60;2.30;;;16.00;99.90;;;;;;473518;251;28828;-68
2022/10/30 03:30:02;;;;;;;2.70;2.20;;;15.90;99.90;;;;;;473523;251;28902;-70
2022/10/30 03:32:03;;;;;;;2.63;2.43;;;15.90;99.90;;;;;;473523;251;29260;-70
2022/10/30 03:34:04;;;;;;;6.00;2.50;;;15.90;99.90;;;;;;473534;251;29372;-69
2022/10/30 03:36:05;;;;;;;2.63;2.00;;;15.90;99.90;;;;;;473524;251;29328;-68
2022/10/30 03:38:07;;;;;;;4.60;2.60;;;15.90;99.90;;;;;;473521;251;29286;-69
2022/10/30 03:40:08;;;;;;;3.03;2.30;;;15.80;99.90;;;;;;473536;251;28803;-71
2022/10/30 03:42:09;;;;;;;3.73;2.30;;;15.80;99.90;;;;;;473522;251;28864;-68
2022/10/30 03:44:10;;;;;;;4.63;2.93;;;15.70;99.90;;;;;;473536;251;28899;-68
2022/10/30 03:46:12;;;;;;;2.60;2.40;;;15.70;99.90;;;;;;473530;251;28868;-67
2022/10/30 03:48:13;;;;;;;4.70;2.47;;;15.60;99.90;;;;;;473512;251;28788;-68
2022/10/30 03:50:14;;;;;;;7.03;3.03;;;15.50;99.90;;;;;;473535;251;28907;-70
2022/10/30 03:52:15;;;;;;;4.83;2.83;;;15.40;99.90;;;;;;473512;251;28852;-68
2022/10/30 03:54:17;;;;;;;3.30;2.70;;;15.40;99.90;;;;;;473516;251;28904;-69
2022/10/30 03:56:18;;;;;;;3.00;2.60;;;15.30;99.90;;;;;;473518;251;28843;-68
2022/10/30 03:58:19;;;;;;;3.10;2.50;;;15.40;99.90;;;;;;473507;251;28836;-69
2022/10/30 04:00:20;;;;;;;2.63;2.17;;;15.30;99.90;;;;;;473540;251;29060;-70
2022/10/30 04:02:22;;;;;;;3.70;2.40;;;15.30;99.90;;;;;;473519;251;29350;-68
2022/10/30 04:04:23;;;;;;;2.97;2.43;;;15.30;99.90;;;;;;473513;251;28800;-68
2022/10/30 04:06:24;;;;;;;5.70;2.60;;;15.30;99.90;;;;;;473513;251;28775;-68
2022/10/30 04:08:25;;;;;;;4.00;2.90;;;15.30;99.90;;;;;;473510;251;28892;-67
2022/10/30 04:10:27;;;;;;;5.87;2.30;;;15.40;99.90;;;;;;473535;251;28960;-71
2022/10/30 04:12:28;;;;;;;3.43;2.40;;;15.30;99.90;;;;;;473501;251;28812;-68
2022/10/30 04:14:29;;;;;;;3.87;2.20;;;15.30;99.90;;;;;;473530;251;28832;-68
2022/10/30 04:16:30;;;;;;;3.53;2.30;;;15.20;99.90;;;;;;473509;251;28880;-68
2022/10/30 04:18:32;;;;;;;3.93;2.60;;;15.10;99.90;;;;;;473514;251;28900;-68
2022/10/30 04:20:33;;;;;;;4.80;2.47;;;15.10;99.90;;;;;;473542;251;28804;-71
2022/10/30 04:22:34;;;;;;;2.10;1.93;;;15.10;99.90;;;;;;473510;251;28996;-68
2022/10/30 04:24:38;;;;;;;2.20;2.00;;;15.10;99.90;;;;;;473500;251;29286;-69
2022/10/30 04:26:37;;;;;;;3.33;2.47;;;15.10;99.90;;;;;;473460;251;29073;-68
2022/10/30 04:28:38;;;;;;;2.40;2.03;;;15.10;99.90;;;;;;473486;251;28926;-68
2022/10/30 04:30:39;;;;;;;2.00;1.90;;;15.00;99.90;;;;;;473532;251;28806;-70
2022/10/30 04:32:41;;;;;;;4.13;2.20;;;15.00;99.90;;;;;;473499;251;28865;-69
2022/10/30 04:34:42;;;;;;;4.10;2.37;;;14.90;99.90;;;;;;473528;251;28504;-70
2022/10/30 04:36:43;;;;;;;2.50;2.20;;;14.90;99.90;;;;;;473534;251;28479;-68
2022/10/30 04:38:44;;;;;;;3.67;2.00;;;14.90;99.90;;;;;;473509;251;28925;-68
2022/10/30 04:40:45;;;;;;;2.60;2.40;;;14.80;99.90;;;;;;473532;251;28844;-71
2022/10/30 04:42:47;;;;;;;1.80;1.70;;;14.70;99.90;;;;;;473514;251;28408;-68
2022/10/30 04:44:48;;;;;;;2.70;2.30;;;14.60;99.90;;;;;;473519;251;28822;-69
2022/10/30 04:46:49;;;;;;;2.23;2.03;;;14.50;99.90;;;;;;473503;251;29035;-68
2022/10/30 04:48:51;;;;;;;2.80;1.80;;;14.50;99.90;;;;;;473525;251;28981;-68
2022/10/30 04:50:52;;;;;;;3.40;2.20;;;14.50;99.90;;;;;;473528;251;28975;-69
2022/10/30 04:52:53;;;;;;;2.20;2.00;;;14.40;99.90;;;;;;473532;251;28825;-68
2022/10/30 04:54:54;;;;;;;2.23;2.03;;;14.40;99.90;;;;;;473533;251;28465;-68
2022/10/30 04:56:55;;;;;;;2.27;2.07;;;14.30;99.90;;;;;;473530;251;28439;-68
2022/10/30 04:58:57;;;;;;;2.80;2.10;;;14.30;99.90;;;;;;473518;251;28273;-68
2022/10/30 05:00:58;;;;;;;4.80;2.20;;;14.20;99.90;;;;;;473507;251;28297;-70
2022/10/30 05:02:59;;;;;;;3.30;2.33;;;14.20;99.90;;;;;;473513;251;28397;-69
2022/10/30 05:05:00;;;;;;;4.80;2.37;;;14.20;99.90;;;;;;473496;251;28287;-68
2022/10/30 05:07:02;;;;;;;2.17;1.80;;;14.10;99.90;;;;;;473481;251;28135;-68
2022/10/30 05:09:03;;;;;;;2.43;2.23;;;14.20;99.90;;;;;;473494;251;28149;-68
2022/10/30 05:11:04;;;;;;;2.57;1.60;;;14.10;99.90;;;;;;473524;251;28524;-69
2022/10/30 05:13:05;;;;;;;2.80;2.20;;;14.10;99.90;;;;;;473522;251;29392;-68
2022/10/30 05:15:08;;;;;;;2.53;2.20;;;;;;;;;;473541;251;28901;-70
2022/10/30 05:17:09;;;;;;;3.30;2.30;;;14.00;99.90;;;;;;473543;251;26627;-68
2022/10/30 05:19:10;;;;;;;2.07;1.97;;;13.90;99.90;;;;;;473545;251;28296;-69
2022/10/30 05:21:12;;;;;;;2.47;1.90;;;13.90;99.90;;;;;;473533;251;28153;-68
2022/10/30 05:23:13;;;;;;;3.00;2.20;;;13.80;99.90;;;;;;473489;251;28186;-68
2022/10/30 05:25:14;;;;;;;2.67;2.10;;;13.70;99.90;;;;;;473447;251;29353;-67
2022/10/30 05:27:15;;;;;;;2.40;2.20;;;13.70;99.90;;;;;;473464;251;28722;-68
2022/10/30 05:29:17;;;;;;;3.37;2.70;;;13.70;99.90;;;;;;473443;251;28761;-70
2022/10/30 05:31:18;;;;;;;2.50;2.30;;;13.60;99.90;;;;;;473455;251;28756;-67
2022/10/30 05:33:19;;;;;;;2.10;2.00;;;13.60;99.90;;;;;;473463;251;28246;-68
2022/10/30 05:35:21;;;;;;;2.80;2.50;;;13.60;99.90;;;;;;473487;251;28158;-68
2022/10/30 05:37:22;;;;;;;2.67;1.83;;;13.60;99.90;;;;;;473496;251;28231;-68
2022/10/30 05:39:23;;;;;;;2.93;2.47;;;13.50;99.90;;;;;;473472;251;28295;-70
2022/10/30 05:41:24;;;;;;;2.73;2.03;;;13.50;99.90;;;;;;473532;251;28279;-67
2022/10/30 05:43:25;;;;;;;2.70;2.50;;;13.40;99.90;;;;;;473529;251;28894;-68
2022/10/30 05:45:27;;;;;;;3.20;2.50;;;13.40;99.90;;;;;;473515;251;28202;-70
2022/10/30 05:47:28;;;;;;;3.63;2.40;;;13.40;99.90;;;;;;473530;251;28147;-68
2022/10/30 05:49:29;;;;;;;2.47;2.27;;;13.40;99.90;;;;;;473522;251;28627;-69
2022/10/30 05:51:30;;;;;;;5.00;2.27;;;13.30;99.90;;;;;;472682;248;29325;-68
2022/10/30 05:53:32;;;;;;;3.00;2.60;;;13.30;99.90;;;;;;472839;251;28630;-68
2022/10/30 05:55:33;;;;;;;2.57;2.37;;;13.30;99.90;;;;;;461215;256;28984;-71
2022/10/30 05:57:34;;;;;;;4.30;2.87;;;13.30;99.90;;;;;;472864;251;28368;-68
2022/10/30 05:59:36;;;;;;;2.70;2.50;;;13.30;99.90;;;;;;472871;251;28992;-68
2022/10/30 06:01:38;;;;;;;4.90;2.70;;;;;;;;;;461206;256;28916;-68
2022/10/30 06:03:41;;;;;;;5.30;3.07;;;;;;;;;;472936;251;26871;-68
2022/10/30 06:05:42;;;;;;;4.90;3.10;;;13.20;99.90;;;;;;461230;256;27631;-69
2022/10/30 06:07:43;;;;;;;4.43;2.93;;;13.30;99.90;;;;;;472898;251;28322;-67
2022/10/30 06:09:44;;;;;;;3.50;3.13;;;13.30;99.90;;;;;;461240;257;28705;-67
2022/10/30 06:11:45;;;;;;;3.07;2.77;;;13.30;99.90;;;;;;472868;251;28600;-70
2022/10/30 06:13:47;;;;;;;4.90;3.10;;;13.30;99.90;;;;;;461200;253;28467;-69
2022/10/30 06:15:48;;;;;;;3.17;2.70;;;13.20;99.90;;;;;;471408;249;28471;-68
2022/10/30 06:17:51;;;;;;;2.50;2.30;;;;;;;;;;471633;251;28472;-68
2022/10/30 06:19:52;;;;;;;3.10;2.80;;;13.20;99.90;;;;;;471671;251;26628;-70
2022/10/30 06:21:53;;;;;;;8.13;2.83;;;13.20;99.90;;;;;;471643;251;28227;-68
2022/10/30 06:23:54;;;;;;;2.50;2.30;;;13.20;99.90;;;;;;471613;251;28298;-68
2022/10/30 06:25:56;;;;;;;3.00;2.30;;;13.20;99.90;;;;;;471653;251;28874;-67
2022/10/30 06:27:57;;;;;;;3.27;2.20;;;13.20;99.90;;;;;;471661;251;29448;-67
2022/10/30 06:29:58;;;;;;;3.70;2.40;;;13.20;99.90;;;;;;471575;251;28551;-69
2022/10/30 06:31:59;;;;;;;5.57;3.40;;;13.20;99.90;;;;;;471670;251;28833;-68
2022/10/30 06:34:01;;;;;;;3.20;2.37;;;13.20;99.90;;;;;;471646;251;28522;-68
2022/10/30 06:36:02;;;;;;;4.40;2.30;;;13.20;99.90;;;;;;471636;251;28814;-68
2022/10/30 06:38:03;;;;;;;2.57;2.37;;;13.20;99.90;;;;;;471646;251;28778;-67
2022/10/30 06:40:04;;;;;;;3.53;2.50;;;13.20;99.90;;;;;;471651;251;28347;-69
2022/10/30 06:42:06;;;;;;;3.97;2.40;;;13.20;99.90;;;;;;471645;250;28119;-68
2022/10/30 06:44:07;;;;;;;3.07;2.00;;;13.20;99.90;;;;;;471653;251;29364;-68
2022/10/30 06:46:08;;;;;;;2.13;1.93;;;13.20;99.90;;;;;;471650;251;28988;-70
2022/10/30 06:48:09;;;;;;;4.50;2.30;;;13.20;99.90;;;;;;471672;251;28597;-68
2022/10/30 06:50:11;;;;;;;2.10;2.00;;;13.20;99.90;;;;;;471685;251;28136;-68
2022/10/30 06:52:12;;;;;;;2.40;2.20;;;13.20;99.90;;;;;;471625;251;28337;-68
2022/10/30 06:54:13;;;;;;;2.00;1.90;;;13.20;99.90;;;;;;471669;251;28294;-67
2022/10/30 06:56:14;;;;;;;2.20;2.10;;;13.20;99.90;;;;;;471601;251;28333;-71
2022/10/30 06:58:16;;;;;;;2.60;2.20;;;13.10;99.90;;;;;;471496;251;28785;-68
2022/10/30 07:00:17;;;;;;;7.60;2.77;;;13.10;99.90;;;;;;471496;251;28397;-68
2022/10/30 07:02:18;;;;;;;4.00;2.47;;;13.20;99.90;;;;;;471377;251;28787;-68
2022/10/30 07:04:20;;;;;;;4.03;2.60;;;13.30;99.90;;;;;;471583;251;28780;-68
2022/10/30 07:06:21;;;;;;;2.60;2.40;;;13.40;99.90;;;;;;471658;251;28836;-69
2022/10/30 07:08:22;;;;;;;4.50;2.47;;;13.40;99.90;;;;;;471655;251;28727;-68
2022/10/30 07:10:23;;;;;;;3.77;3.20;;;13.40;99.90;;;;;;471607;251;28752;-67
2022/10/30 07:12:24;;;;;;;4.57;2.50;;;13.50;99.90;;;;;;471650;251;30089;-68
2022/10/30 07:14:26;;;;;;;2.50;2.30;;;13.50;99.90;;;;;;471664;251;28129;-68
2022/10/30 07:16:27;;;;;;;2.90;2.43;;;13.60;99.90;;;;;;471639;251;28177;-69
2022/10/30 07:18:28;;;;;;;2.67;2.47;;;13.70;99.90;;;;;;471650;251;28329;-68
2022/10/30 07:20:29;;;;;;;2.57;2.37;;;13.80;99.90;;;;;;471649;251;28157;-69
2022/10/30 07:22:32;;;;;;;2.17;1.97;;;;;;;;;;471298;251;28188;-69
2022/10/30 07:24:33;;;;;;;3.03;2.73;;;13.80;99.90;;;;;;471701;251;27049;-69
2022/10/30 07:26:36;;;;;;;2.20;2.00;;;13.90;99.90;;;;;;471712;251;28113;-70
2022/10/30 07:28:36;;;;;;;2.53;2.33;;;13.80;99.90;;;;;;471690;251;28168;-69
2022/10/30 07:30:37;;;;;;;3.03;2.40;;;13.80;99.90;;;;;;471631;251;28268;-69
2022/10/30 07:32:38;;;;;;;2.50;2.10;;;13.80;99.90;;;;;;469759;251;28431;-68
2022/10/30 07:34:39;;;;;;;2.50;2.30;;;13.90;99.90;;;;;;469742;253;28371;-70
2022/10/30 07:36:41;;;;;;;2.03;1.83;;;14.00;99.90;;;;;;469745;251;28283;-68
2022/10/30 07:38:42;;;;;;;2.43;2.03;;;14.10;99.90;;;;;;469710;253;28375;-69
2022/10/30 07:40:43;;;;;;;5.50;2.33;;;14.20;99.90;;;;;;469754;251;28237;-69
2022/10/30 07:42:44;;;;;;;2.60;2.40;;;14.20;99.90;;;;;;469747;253;28654;-69
2022/10/30 07:44:46;;;;;;;2.40;2.20;;;14.20;99.90;;;;;;469755;251;28974;-69
2022/10/30 07:46:47;;;;;;;3.57;2.10;;;14.20;99.90;;;;;;469740;253;28965;-69
2022/10/30 07:48:48;;;;;;;2.60;2.33;;;14.20;99.90;;;;;;469748;251;28978;-70
2022/10/30 07:50:49;;;;;;;2.53;2.30;;;14.40;99.90;;;;;;469721;253;28811;-68
2022/10/30 07:52:51;;;;;;;2.47;2.27;;;14.50;99.90;;;;;;469737;251;28666;-68
2022/10/30 07:54:52;;;;;;;2.10;2.00;;;14.60;99.90;;;;;;469736;253;28702;-70
2022/10/30 07:56:53;;;;;;;2.47;2.30;;;14.70;99.90;;;;;;469729;251;28895;-68
2022/10/30 07:58:54;;;;;;;2.63;2.43;;;14.90;99.90;;;;;;469772;253;28525;-69
2022/10/30 08:00:56;;;;;;;2.40;2.20;;;15.20;99.90;;;;;;469781;251;28307;-69
2022/10/30 08:02:57;;;;;;;2.20;2.10;;;15.30;99.90;;;;;;469791;253;28708;-68
2022/10/30 08:04:58;;;;;;;2.67;2.40;;;15.30;99.90;;;;;;469733;251;28907;-71
2022/10/30 08:06:59;;;;;;;2.57;2.37;;;15.40;99.90;;;;;;469743;253;28890;-69
2022/10/30 08:09:01;;;;;;;2.30;2.10;;;15.50;99.90;;;;;;469764;251;29493;-69
2022/10/30 08:11:02;;;;;;;2.93;2.70;;;15.50;99.90;;;;;;469735;253;29325;-68
2022/10/30 08:13:03;;;;;;;3.67;2.60;;;15.60;99.90;;;;;;469721;251;29422;-69
2022/10/30 08:15:04;;;;;;;6.70;2.80;;;15.70;99.90;;;;;;469750;253;29463;-71
2022/10/30 08:17:09;;;;;;;3.40;2.40;;;15.70;99.90;;;;;;469757;251;28869;-69
2022/10/30 08:19:07;;;;;;;6.60;3.03;;;15.90;99.90;;;;;;469728;253;28988;-70
2022/10/30 08:21:08;;;;;;;3.80;2.13;;;16.00;99.90;;;;;;473689;233;28976;-69
2022/10/30 08:23:09;;;;;;;2.10;1.90;;;16.10;99.90;;;;;;485950;242;28761;-69
2022/10/30 08:25:11;;;;;;;2.03;1.93;;;16.20;99.90;;;;;;485989;244;28806;-70
2022/10/30 08:27:12;;;;;;;4.07;2.60;;;16.20;99.90;;;;;;485992;244;28810;-69
2022/10/30 08:29:13;;;;;;;4.40;3.07;;;16.30;99.90;;;;;;485986;244;28788;-69
2022/10/30 08:31:14;;;;;;;2.40;2.20;;;16.50;99.90;;;;;;486002;245;28757;-69
2022/10/30 08:33:16;;;;;;;2.60;2.33;;;16.40;99.90;;;;;;486011;245;29218;-69
2022/10/30 08:35:17;;;;;;;3.00;2.60;;;16.50;99.90;;;;;;485993;245;29339;-70
2022/10/30 08:37:18;;;;;;;3.73;2.70;;;16.60;99.90;;;;;;486002;245;28899;-69
2022/10/30 08:39:19;;;;;;;3.43;2.33;;;16.80;99.90;;;;;;486013;245;28899;-70
2022/10/30 08:41:21;;;;;;;2.60;2.23;;;16.70;99.90;;;;;;485990;245;28883;-69
2022/10/30 08:43:24;;;;;;;2.50;2.30;;;16.80;99.90;;;;;;486013;245;28760;-69
2022/10/30 08:45:23;;;;;;;2.43;2.20;;;16.90;99.90;;;;;;485911;245;28788;-70
2022/10/30 08:47:24;;;;;;;3.90;2.73;;;17.00;99.90;;;;;;486006;245;28841;-69
2022/10/30 08:49:26;;;;;;;3.00;2.47;;;17.20;99.90;;;;;;486013;245;28871;-70
2022/10/30 08:51:27;;;;;;;4.40;2.60;;;17.20;99.90;;;;;;486014;245;28748;-69
2022/10/30 08:53:28;;;;;;;3.77;3.03;;;17.20;99.90;;;;;;486011;245;29365;-69
2022/10/30 08:55:29;;;;;;;4.43;2.20;;;17.30;99.90;;;;;;485991;245;29428;-70
2022/10/30 08:57:31;;;;;;;4.67;2.20;;;17.30;99.90;;;;;;486009;245;29259;-69
2022/10/30 08:59:32;;;;;;;2.40;2.20;;;17.40;99.90;;;;;;486011;245;29390;-70
2022/10/30 09:01:35;;;;;;;5.80;2.20;;;17.40;99.90;;;;;;486037;245;28732;-69
2022/10/30 09:03:35;;;;;;;2.57;2.37;;;17.50;99.90;;;;;;485800;244;28758;-69
2022/10/30 09:05:36;;;;;;;2.00;1.90;;;17.60;99.90;;;;;;485953;244;28832;-71
2022/10/30 09:07:37;;;;;;;3.33;2.43;;;17.70;99.90;;;;;;486351;239;28680;-70
2022/10/30 09:09:38;;;;;;;4.37;2.20;;;17.80;99.90;;;;;;485505;245;28758;-69
2022/10/30 09:11:40;;;;;;;3.53;3.00;;;17.80;99.90;;;;;;485475;245;28727;-69
2022/10/30 09:13:41;;;;;;;5.80;2.77;;;18.00;99.90;;;;;;485490;245;28743;-69
2022/10/30 09:15:42;;;;;;;2.07;1.97;;;18.10;99.90;;;;;;485488;245;28798;-70
2022/10/30 09:17:43;;;;;;;5.63;2.40;;;18.10;99.90;;;;;;485488;245;29092;-68
2022/10/30 09:19:45;;;;;;;2.93;2.70;;;18.10;99.90;;;;;;485492;245;29199;-69
2022/10/30 09:21:46;;;;;;;4.03;2.57;;;18.10;99.90;;;;;;485480;245;29884;-68
2022/10/30 09:23:47;;;;;;;2.53;2.33;;;18.20;99.90;;;;;;485505;245;29178;-69
2022/10/30 09:25:51;;;;;;;3.10;2.33;;;18.20;99.90;;;;;;485478;245;28751;-69
2022/10/30 09:27:50;;;;;;;2.30;2.20;;;18.20;99.90;;;;;;485118;245;24984;-69
2022/10/30 09:29:51;;;;;;;2.43;2.23;;;18.20;99.90;;;;;;485487;245;27888;-68
2022/10/30 09:31:52;;;;;;;3.60;2.30;;;18.30;99.90;;;;;;483433;236;28800;-71
2022/10/30 09:33:53;;;;;;;3.80;2.00;;;18.20;99.90;;;;;;475920;250;28778;-69
2022/10/30 09:35:55;;;;;;;3.13;2.20;;;18.40;99.90;;;;;;474124;248;28873;-68
2022/10/30 09:37:56;;;;;;;3.10;2.30;;;18.40;99.90;;;;;;473440;248;28833;-69
2022/10/30 09:39:57;;;;;;;5.83;3.07;;;18.50;99.90;;;;;;478851;248;28926;-69
2022/10/30 09:41:58;;;;;;;2.63;2.43;;;18.60;99.90;;;;;;479379;235;28937;-71
2022/10/30 09:44:00;;;;;;;2.50;2.30;;;18.60;99.90;;;;;;477749;249;28818;-69
2022/10/30 09:46:01;;;;;;;5.67;2.40;;;18.60;99.90;;;;;;477749;249;28920;-69
2022/10/30 09:48:02;;;;;;;4.60;2.90;;;18.60;99.90;;;;;;477723;249;28731;-69
2022/10/30 09:50:04;;;;;;;3.17;2.53;;;18.80;99.90;;;;;;477739;249;29270;-69
2022/10/30 09:52:05;;;;;;;4.60;2.33;;;18.80;99.90;;;;;;483472;234;29224;-70
2022/10/30 09:54:07;;;;;;;4.40;2.67;;;18.80;99.90;;;;;;487184;244;29187;-69
2022/10/30 09:56:07;;;;;;;3.83;2.53;;;19.00;99.90;;;;;;487113;244;28763;-69
2022/10/30 09:58:08;;;;;;;2.50;2.20;;;18.90;99.90;;;;;;487197;244;28889;-68
2022/10/30 10:00:10;;;;;;;3.53;2.70;;;18.90;99.90;;;;;;487200;244;28689;-69
2022/10/30 10:02:11;;;;;;;2.70;2.40;;;19.00;99.90;;;;;;485512;240;28767;-70
2022/10/30 10:04:12;;;;;;;3.57;2.67;;;19.10;99.90;;;;;;486483;244;28990;-69
2022/10/30 10:06:13;;;;;;;4.30;2.50;;;19.10;99.90;;;;;;486706;244;28950;-69
2022/10/30 10:08:15;;;;;;;2.70;2.50;;;19.30;99.90;;;;;;486727;241;28782;-69
2022/10/30 10:10:16;;;;;;;3.93;2.80;;;19.30;99.90;;;;;;486727;244;28739;-69
2022/10/30 10:12:17;;;;;;;6.23;2.60;;;19.40;99.90;;;;;;487863;235;28827;-70
2022/10/30 10:14:18;;;;;;;4.70;2.87;;;19.50;99.90;;;;;;489838;243;29139;-69
2022/10/30 10:16:20;;;;;;;4.97;2.40;;;19.60;99.90;;;;;;473803;250;29449;-70
2022/10/30 10:18:21;;;;;;;2.63;2.37;;;19.50;99.90;;;;;;473815;251;30121;-69
2022/10/30 10:20:22;;;;;;;2.80;2.50;;;19.50;99.90;;;;;;473844;251;28958;-69
2022/10/30 10:22:23;;;;;;;2.53;2.30;;;19.50;99.90;;;;;;470351;240;28875;-70
2022/10/30 10:24:25;;;;;;;2.80;2.30;;;19.40;99.90;;;;;;477274;249;28827;-69
2022/10/30 10:26:29;;;;;;;4.90;2.53;;;19.40;99.90;;;;;;477275;249;28846;-69
2022/10/30 10:28:30;;;;;;;2.37;2.00;;;19.50;99.90;;;;;;476919;249;28885;-69
2022/10/30 10:30:31;;;;;;;3.90;2.77;;;19.50;99.90;;;;;;477280;249;28909;-69
2022/10/30 10:32:32;;;;;;;3.57;2.40;;;19.70;99.90;;;;;;483923;238;29328;-69